sensor_id;sensor_type;location;lat;lon;timestamp;P1;durP1;ratioP1;P2;durP2;ratioP2
5277;SDS011;2662;51.194;6.614;2022-08-27T00:01:10;8.03;;;2.87;;
5277;SDS011;2662;51.194;6.614;2022-08-27T00:03:41;10.90;;;3.53;;
5277;SDS011;2662;51.194;6.614;2022-08-27T00:06:10;14.83;;;2.93;;
5277;SDS011;2662;51.194;6.614;2022-08-27T00:08:39;10.43;;;3.03;;
5277;SDS011;2662;51.194;6.614;2022-08-27T00:11:06;6.93;;;3.07;;
5277;SDS011;2662;51.194;6.614;2022-08-27T00:13:33;8.77;;;3.13;;
5277;SDS011;2662;51.194;6.614;2022-08-27T00:16:00;12.33;;;2.97;;
5277;SDS011;2662;51.194;6.614;2022-08-27T00:18:27;14.13;;;2.33;;
5277;SDS011;2662;51.194;6.614;2022-08-27T00:20:55;9.40;;;2.50;;
5277;SDS011;2662;51.194;6.614;2022-08-27T00:23:22;11.43;;;2.70;;
5277;SDS011;2662;51.194;6.614;2022-08-27T00:25:49;5.47;;;2.30;;
5277;SDS011;2662;51.194;6.614;2022-08-27T00:28:16;7.17;;;2.30;;
5277;SDS011;2662;51.194;6.614;2022-08-27T00:30:42;8.23;;;2.33;;
5277;SDS011;2662;51.194;6.614;2022-08-27T00:33:09;3.30;;;2.27;;
5277;SDS011;2662;51.194;6.614;2022-08-27T00:35:36;11.50;;;2.10;;
5277;SDS011;2662;51.194;6.614;2022-08-27T00:38:04;16.07;;;2.80;;
5277;SDS011;2662;51.194;6.614;2022-08-27T00:40:32;3.80;;;2.30;;
5277;SDS011;2662;51.194;6.614;2022-08-27T00:42:59;10.23;;;2.20;;
5277;SDS011;2662;51.194;6.614;2022-08-27T00:45:27;11.50;;;2.30;;
5277;SDS011;2662;51.194;6.614;2022-08-27T00:47:58;7.80;;;2.40;;
5277;SDS011;2662;51.194;6.614;2022-08-27T00:50:28;4.90;;;2.50;;
5277;SDS011;2662;51.194;6.614;2022-08-27T00:53:00;11.97;;;2.90;;
5277;SDS011;2662;51.194;6.614;2022-08-27T00:55:33;7.53;;;2.73;;
5277;SDS011;2662;51.194;6.614;2022-08-27T00:58:06;4.57;;;2.50;;
5277;SDS011;2662;51.194;6.614;2022-08-27T01:00:39;7.23;;;2.70;;
5277;SDS011;2662;51.194;6.614;2022-08-27T01:03:06;11.93;;;3.23;;
5277;SDS011;2662;51.194;6.614;2022-08-27T01:05:33;8.00;;;3.20;;
5277;SDS011;2662;51.194;6.614;2022-08-27T01:08:03;19.13;;;3.43;;
5277;SDS011;2662;51.194;6.614;2022-08-27T01:10:35;12.40;;;2.77;;
5277;SDS011;2662;51.194;6.614;2022-08-27T01:13:03;9.70;;;2.90;;
5277;SDS011;2662;51.194;6.614;2022-08-27T01:15:32;8.93;;;3.20;;
5277;SDS011;2662;51.194;6.614;2022-08-27T01:17:59;13.07;;;2.83;;
5277;SDS011;2662;51.194;6.614;2022-08-27T01:20:29;10.20;;;2.60;;
5277;SDS011;2662;51.194;6.614;2022-08-27T01:23:02;4.10;;;2.00;;
5277;SDS011;2662;51.194;6.614;2022-08-27T01:25:36;6.27;;;3.13;;
5277;SDS011;2662;51.194;6.614;2022-08-27T01:28:03;7.17;;;2.77;;
5277;SDS011;2662;51.194;6.614;2022-08-27T01:30:31;6.50;;;2.33;;
5277;SDS011;2662;51.194;6.614;2022-08-27T01:32:59;7.00;;;2.47;;
5277;SDS011;2662;51.194;6.614;2022-08-27T01:35:25;5.63;;;2.40;;
5277;SDS011;2662;51.194;6.614;2022-08-27T01:37:53;7.30;;;2.20;;
5277;SDS011;2662;51.194;6.614;2022-08-27T01:40:20;15.90;;;2.70;;
5277;SDS011;2662;51.194;6.614;2022-08-27T01:42:49;10.40;;;2.57;;
5277;SDS011;2662;51.194;6.614;2022-08-27T01:45:19;10.87;;;2.00;;
5277;SDS011;2662;51.194;6.614;2022-08-27T01:47:48;8.33;;;2.33;;
5277;SDS011;2662;51.194;6.614;2022-08-27T01:50:16;5.73;;;2.00;;
5277;SDS011;2662;51.194;6.614;2022-08-27T01:52:45;6.20;;;2.10;;
5277;SDS011;2662;51.194;6.614;2022-08-27T01:55:14;9.20;;;1.83;;
5277;SDS011;2662;51.194;6.614;2022-08-27T01:57:44;11.80;;;1.93;;
5277;SDS011;2662;51.194;6.614;2022-08-27T02:00:14;7.73;;;1.60;;
5277;SDS011;2662;51.194;6.614;2022-08-27T02:02:44;8.07;;;2.40;;
5277;SDS011;2662;51.194;6.614;2022-08-27T02:05:11;7.30;;;2.13;;
5277;SDS011;2662;51.194;6.614;2022-08-27T02:07:39;16.10;;;2.07;;
5277;SDS011;2662;51.194;6.614;2022-08-27T02:10:07;8.63;;;1.67;;
5277;SDS011;2662;51.194;6.614;2022-08-27T02:12:36;6.53;;;1.70;;
5277;SDS011;2662;51.194;6.614;2022-08-27T02:15:03;7.57;;;2.03;;
5277;SDS011;2662;51.194;6.614;2022-08-27T02:17:32;3.73;;;1.60;;
5277;SDS011;2662;51.194;6.614;2022-08-27T02:19:59;6.40;;;1.70;;
5277;SDS011;2662;51.194;6.614;2022-08-27T02:22:25;8.43;;;2.23;;
5277;SDS011;2662;51.194;6.614;2022-08-27T02:24:52;4.50;;;1.73;;
5277;SDS011;2662;51.194;6.614;2022-08-27T02:27:19;4.10;;;1.80;;
5277;SDS011;2662;51.194;6.614;2022-08-27T02:29:46;6.13;;;1.87;;
5277;SDS011;2662;51.194;6.614;2022-08-27T02:32:14;9.97;;;1.40;;
5277;SDS011;2662;51.194;6.614;2022-08-27T02:34:43;6.27;;;2.50;;
5277;SDS011;2662;51.194;6.614;2022-08-27T02:37:09;13.00;;;2.00;;
5277;SDS011;2662;51.194;6.614;2022-08-27T02:39:36;6.83;;;2.13;;
5277;SDS011;2662;51.194;6.614;2022-08-27T02:42:03;7.50;;;2.10;;
5277;SDS011;2662;51.194;6.614;2022-08-27T02:44:30;5.67;;;1.90;;
5277;SDS011;2662;51.194;6.614;2022-08-27T02:46:59;9.80;;;2.27;;
5277;SDS011;2662;51.194;6.614;2022-08-27T02:49:27;5.40;;;2.00;;
5277;SDS011;2662;51.194;6.614;2022-08-27T02:51:55;6.63;;;2.10;;
5277;SDS011;2662;51.194;6.614;2022-08-27T02:54:23;8.70;;;1.80;;
5277;SDS011;2662;51.194;6.614;2022-08-27T02:56:51;8.83;;;2.33;;
5277;SDS011;2662;51.194;6.614;2022-08-27T02:59:19;9.60;;;2.77;;
5277;SDS011;2662;51.194;6.614;2022-08-27T03:01:45;4.20;;;1.73;;
5277;SDS011;2662;51.194;6.614;2022-08-27T03:04:13;4.37;;;1.70;;
5277;SDS011;2662;51.194;6.614;2022-08-27T03:06:40;12.70;;;2.40;;
5277;SDS011;2662;51.194;6.614;2022-08-27T03:09:08;8.90;;;2.10;;
5277;SDS011;2662;51.194;6.614;2022-08-27T03:11:35;5.20;;;2.30;;
5277;SDS011;2662;51.194;6.614;2022-08-27T03:14:02;13.73;;;2.50;;
5277;SDS011;2662;51.194;6.614;2022-08-27T03:16:29;5.20;;;1.90;;
5277;SDS011;2662;51.194;6.614;2022-08-27T03:18:59;22.43;;;3.00;;
5277;SDS011;2662;51.194;6.614;2022-08-27T03:21:25;7.07;;;2.20;;
5277;SDS011;2662;51.194;6.614;2022-08-27T03:23:51;13.37;;;2.30;;
5277;SDS011;2662;51.194;6.614;2022-08-27T03:26:20;6.70;;;2.37;;
5277;SDS011;2662;51.194;6.614;2022-08-27T03:28:47;7.77;;;2.10;;
5277;SDS011;2662;51.194;6.614;2022-08-27T03:31:15;7.63;;;2.03;;
5277;SDS011;2662;51.194;6.614;2022-08-27T03:33:50;14.70;;;2.27;;
5277;SDS011;2662;51.194;6.614;2022-08-27T03:36:17;5.60;;;2.10;;
5277;SDS011;2662;51.194;6.614;2022-08-27T03:38:44;6.20;;;2.27;;
5277;SDS011;2662;51.194;6.614;2022-08-27T03:41:11;6.37;;;2.00;;
5277;SDS011;2662;51.194;6.614;2022-08-27T03:43:41;5.43;;;1.90;;
5277;SDS011;2662;51.194;6.614;2022-08-27T03:46:08;6.00;;;1.87;;
5277;SDS011;2662;51.194;6.614;2022-08-27T03:48:35;8.10;;;2.20;;
5277;SDS011;2662;51.194;6.614;2022-08-27T03:51:03;6.50;;;2.37;;
5277;SDS011;2662;51.194;6.614;2022-08-27T03:53:32;13.00;;;2.30;;
5277;SDS011;2662;51.194;6.614;2022-08-27T03:55:58;4.97;;;2.07;;
5277;SDS011;2662;51.194;6.614;2022-08-27T03:58:25;5.10;;;2.03;;
5277;SDS011;2662;51.194;6.614;2022-08-27T04:00:53;7.30;;;2.40;;
5277;SDS011;2662;51.194;6.614;2022-08-27T04:03:20;10.70;;;2.50;;
5277;SDS011;2662;51.194;6.614;2022-08-27T04:05:50;6.57;;;2.23;;
5277;SDS011;2662;51.194;6.614;2022-08-27T04:08:17;8.67;;;2.57;;
5277;SDS011;2662;51.194;6.614;2022-08-27T04:10:45;7.43;;;2.57;;
5277;SDS011;2662;51.194;6.614;2022-08-27T04:13:12;10.27;;;2.50;;
5277;SDS011;2662;51.194;6.614;2022-08-27T04:15:40;8.07;;;2.20;;
5277;SDS011;2662;51.194;6.614;2022-08-27T04:18:10;8.03;;;2.00;;
5277;SDS011;2662;51.194;6.614;2022-08-27T04:20:37;12.70;;;2.10;;
5277;SDS011;2662;51.194;6.614;2022-08-27T04:23:04;5.40;;;2.20;;
5277;SDS011;2662;51.194;6.614;2022-08-27T04:25:31;5.03;;;2.23;;
5277;SDS011;2662;51.194;6.614;2022-08-27T04:27:58;7.77;;;2.37;;
5277;SDS011;2662;51.194;6.614;2022-08-27T04:30:25;6.80;;;2.10;;
5277;SDS011;2662;51.194;6.614;2022-08-27T04:32:51;9.23;;;2.20;;
5277;SDS011;2662;51.194;6.614;2022-08-27T04:35:19;7.40;;;2.20;;
5277;SDS011;2662;51.194;6.614;2022-08-27T04:37:46;8.30;;;3.13;;
5277;SDS011;2662;51.194;6.614;2022-08-27T04:40:13;17.53;;;3.07;;
5277;SDS011;2662;51.194;6.614;2022-08-27T04:42:40;12.70;;;2.60;;
5277;SDS011;2662;51.194;6.614;2022-08-27T04:45:07;7.33;;;2.43;;
5277;SDS011;2662;51.194;6.614;2022-08-27T04:47:35;9.77;;;2.43;;
5277;SDS011;2662;51.194;6.614;2022-08-27T04:50:02;3.73;;;2.30;;
5277;SDS011;2662;51.194;6.614;2022-08-27T04:52:31;10.20;;;2.90;;
5277;SDS011;2662;51.194;6.614;2022-08-27T04:54:58;5.10;;;3.00;;
5277;SDS011;2662;51.194;6.614;2022-08-27T04:57:25;13.20;;;2.70;;
5277;SDS011;2662;51.194;6.614;2022-08-27T04:59:51;12.03;;;3.20;;
5277;SDS011;2662;51.194;6.614;2022-08-27T05:02:18;13.70;;;2.97;;
5277;SDS011;2662;51.194;6.614;2022-08-27T05:04:45;6.80;;;2.73;;
5277;SDS011;2662;51.194;6.614;2022-08-27T05:07:12;12.50;;;3.13;;
5277;SDS011;2662;51.194;6.614;2022-08-27T05:09:40;8.60;;;2.77;;
5277;SDS011;2662;51.194;6.614;2022-08-27T05:12:07;9.87;;;2.80;;
5277;SDS011;2662;51.194;6.614;2022-08-27T05:14:34;14.53;;;3.57;;
5277;SDS011;2662;51.194;6.614;2022-08-27T05:17:00;9.33;;;2.90;;
5277;SDS011;2662;51.194;6.614;2022-08-27T05:19:27;11.10;;;2.87;;
5277;SDS011;2662;51.194;6.614;2022-08-27T05:21:54;10.43;;;3.23;;
5277;SDS011;2662;51.194;6.614;2022-08-27T05:24:21;9.50;;;3.17;;
5277;SDS011;2662;51.194;6.614;2022-08-27T05:26:49;11.73;;;3.37;;
5277;SDS011;2662;51.194;6.614;2022-08-27T05:29:16;10.53;;;3.73;;
5277;SDS011;2662;51.194;6.614;2022-08-27T05:31:43;9.40;;;3.00;;
5277;SDS011;2662;51.194;6.614;2022-08-27T05:34:11;15.20;;;3.30;;
5277;SDS011;2662;51.194;6.614;2022-08-27T05:36:39;10.17;;;2.83;;
5277;SDS011;2662;51.194;6.614;2022-08-27T05:39:06;9.30;;;3.10;;
5277;SDS011;2662;51.194;6.614;2022-08-27T05:41:34;7.70;;;3.23;;
5277;SDS011;2662;51.194;6.614;2022-08-27T05:44:03;10.67;;;3.53;;
5277;SDS011;2662;51.194;6.614;2022-08-27T05:46:33;28.03;;;3.57;;
5277;SDS011;2662;51.194;6.614;2022-08-27T05:49:00;14.50;;;2.70;;
5277;SDS011;2662;51.194;6.614;2022-08-27T05:51:28;14.93;;;3.10;;
5277;SDS011;2662;51.194;6.614;2022-08-27T05:53:56;14.30;;;3.33;;
5277;SDS011;2662;51.194;6.614;2022-08-27T05:56:26;14.40;;;4.07;;
5277;SDS011;2662;51.194;6.614;2022-08-27T05:58:55;10.50;;;4.00;;
5277;SDS011;2662;51.194;6.614;2022-08-27T06:01:41;7.27;;;2.90;;
5277;SDS011;2662;51.194;6.614;2022-08-27T06:04:11;8.93;;;3.10;;
5277;SDS011;2662;51.194;6.614;2022-08-27T06:06:39;5.40;;;2.60;;
5277;SDS011;2662;51.194;6.614;2022-08-27T06:09:07;14.17;;;3.00;;
5277;SDS011;2662;51.194;6.614;2022-08-27T06:11:35;6.63;;;2.70;;
5277;SDS011;2662;51.194;6.614;2022-08-27T06:14:02;11.80;;;2.70;;
5277;SDS011;2662;51.194;6.614;2022-08-27T06:16:29;10.10;;;2.93;;
5277;SDS011;2662;51.194;6.614;2022-08-27T06:18:57;12.30;;;2.53;;
5277;SDS011;2662;51.194;6.614;2022-08-27T06:21:24;15.20;;;4.00;;
5277;SDS011;2662;51.194;6.614;2022-08-27T06:23:51;4.77;;;2.80;;
5277;SDS011;2662;51.194;6.614;2022-08-27T06:26:19;4.80;;;2.33;;
5277;SDS011;2662;51.194;6.614;2022-08-27T06:28:46;9.67;;;3.10;;
5277;SDS011;2662;51.194;6.614;2022-08-27T06:31:14;12.73;;;2.73;;
5277;SDS011;2662;51.194;6.614;2022-08-27T06:33:43;6.70;;;3.20;;
5277;SDS011;2662;51.194;6.614;2022-08-27T06:36:13;9.60;;;3.33;;
5277;SDS011;2662;51.194;6.614;2022-08-27T06:38:43;15.27;;;3.30;;
5277;SDS011;2662;51.194;6.614;2022-08-27T06:41:11;8.10;;;3.10;;
5277;SDS011;2662;51.194;6.614;2022-08-27T06:43:40;7.93;;;2.70;;
5277;SDS011;2662;51.194;6.614;2022-08-27T06:46:08;7.37;;;3.27;;
5277;SDS011;2662;51.194;6.614;2022-08-27T06:48:37;7.70;;;2.80;;
5277;SDS011;2662;51.194;6.614;2022-08-27T06:51:08;7.03;;;2.43;;
5277;SDS011;2662;51.194;6.614;2022-08-27T06:53:38;7.73;;;2.80;;
5277;SDS011;2662;51.194;6.614;2022-08-27T06:56:05;6.93;;;2.40;;
5277;SDS011;2662;51.194;6.614;2022-08-27T06:58:33;10.90;;;2.50;;
5277;SDS011;2662;51.194;6.614;2022-08-27T07:01:00;6.93;;;2.40;;
5277;SDS011;2662;51.194;6.614;2022-08-27T07:03:27;8.97;;;2.50;;
5277;SDS011;2662;51.194;6.614;2022-08-27T07:06:01;8.70;;;2.93;;
5277;SDS011;2662;51.194;6.614;2022-08-27T07:08:29;7.20;;;2.80;;
5277;SDS011;2662;51.194;6.614;2022-08-27T07:10:58;5.60;;;2.43;;
5277;SDS011;2662;51.194;6.614;2022-08-27T07:13:25;9.63;;;2.10;;
5277;SDS011;2662;51.194;6.614;2022-08-27T07:15:52;8.50;;;2.50;;
5277;SDS011;2662;51.194;6.614;2022-08-27T07:18:19;12.30;;;2.57;;
5277;SDS011;2662;51.194;6.614;2022-08-27T07:20:46;4.90;;;2.50;;
5277;SDS011;2662;51.194;6.614;2022-08-27T07:23:13;10.63;;;2.93;;
5277;SDS011;2662;51.194;6.614;2022-08-27T07:25:40;9.63;;;2.73;;
5277;SDS011;2662;51.194;6.614;2022-08-27T07:28:08;12.80;;;2.63;;
5277;SDS011;2662;51.194;6.614;2022-08-27T07:30:35;18.83;;;2.63;;
5277;SDS011;2662;51.194;6.614;2022-08-27T07:33:02;6.40;;;3.00;;
5277;SDS011;2662;51.194;6.614;2022-08-27T07:35:29;14.03;;;3.17;;
5277;SDS011;2662;51.194;6.614;2022-08-27T07:37:56;8.47;;;3.37;;
5277;SDS011;2662;51.194;6.614;2022-08-27T07:40:23;7.70;;;2.83;;
5277;SDS011;2662;51.194;6.614;2022-08-27T07:42:50;11.07;;;3.17;;
5277;SDS011;2662;51.194;6.614;2022-08-27T07:45:41;10.50;;;3.07;;
5277;SDS011;2662;51.194;6.614;2022-08-27T07:48:09;7.20;;;2.07;;
5277;SDS011;2662;51.194;6.614;2022-08-27T07:50:36;6.83;;;2.50;;
5277;SDS011;2662;51.194;6.614;2022-08-27T07:53:03;5.80;;;2.60;;
5277;SDS011;2662;51.194;6.614;2022-08-27T07:55:31;11.40;;;2.70;;
5277;SDS011;2662;51.194;6.614;2022-08-27T07:58:00;4.63;;;2.43;;
5277;SDS011;2662;51.194;6.614;2022-08-27T08:00:27;7.37;;;2.33;;
5277;SDS011;2662;51.194;6.614;2022-08-27T08:02:55;11.37;;;3.10;;
5277;SDS011;2662;51.194;6.614;2022-08-27T08:05:22;7.60;;;2.37;;
5277;SDS011;2662;51.194;6.614;2022-08-27T08:07:49;10.50;;;3.20;;
5277;SDS011;2662;51.194;6.614;2022-08-27T08:10:16;7.93;;;2.43;;
5277;SDS011;2662;51.194;6.614;2022-08-27T08:12:44;13.00;;;2.60;;
5277;SDS011;2662;51.194;6.614;2022-08-27T08:15:11;12.13;;;3.10;;
5277;SDS011;2662;51.194;6.614;2022-08-27T08:17:38;4.03;;;2.87;;
5277;SDS011;2662;51.194;6.614;2022-08-27T08:20:07;9.50;;;2.53;;
5277;SDS011;2662;51.194;6.614;2022-08-27T08:22:35;7.10;;;2.33;;
5277;SDS011;2662;51.194;6.614;2022-08-27T08:25:02;17.33;;;2.87;;
5277;SDS011;2662;51.194;6.614;2022-08-27T08:27:30;12.60;;;3.50;;
5277;SDS011;2662;51.194;6.614;2022-08-27T08:29:57;8.33;;;2.83;;
5277;SDS011;2662;51.194;6.614;2022-08-27T08:32:24;7.60;;;2.50;;
5277;SDS011;2662;51.194;6.614;2022-08-27T08:34:51;7.40;;;3.00;;
5277;SDS011;2662;51.194;6.614;2022-08-27T08:37:19;11.70;;;4.10;;
5277;SDS011;2662;51.194;6.614;2022-08-27T08:39:46;14.33;;;5.17;;
5277;SDS011;2662;51.194;6.614;2022-08-27T08:42:20;8.30;;;4.00;;
5277;SDS011;2662;51.194;6.614;2022-08-27T08:44:54;14.50;;;3.83;;
5277;SDS011;2662;51.194;6.614;2022-08-27T08:47:24;10.93;;;4.33;;
5277;SDS011;2662;51.194;6.614;2022-08-27T08:49:55;8.77;;;4.03;;
5277;SDS011;2662;51.194;6.614;2022-08-27T08:52:35;25.93;;;4.37;;
5277;SDS011;2662;51.194;6.614;2022-08-27T08:55:11;6.73;;;2.97;;
5277;SDS011;2662;51.194;6.614;2022-08-27T08:57:45;6.10;;;2.70;;
5277;SDS011;2662;51.194;6.614;2022-08-27T09:00:16;10.37;;;3.10;;
5277;SDS011;2662;51.194;6.614;2022-08-27T09:02:46;11.93;;;2.97;;
5277;SDS011;2662;51.194;6.614;2022-08-27T09:05:16;7.80;;;3.30;;
5277;SDS011;2662;51.194;6.614;2022-08-27T09:07:45;7.63;;;2.77;;
5277;SDS011;2662;51.194;6.614;2022-08-27T09:10:17;7.80;;;2.60;;
5277;SDS011;2662;51.194;6.614;2022-08-27T09:12:49;7.43;;;2.87;;
5277;SDS011;2662;51.194;6.614;2022-08-27T09:15:19;10.00;;;2.47;;
5277;SDS011;2662;51.194;6.614;2022-08-27T09:17:50;5.07;;;2.50;;
5277;SDS011;2662;51.194;6.614;2022-08-27T09:20:17;11.30;;;2.80;;
5277;SDS011;2662;51.194;6.614;2022-08-27T09:22:48;5.30;;;2.10;;
5277;SDS011;2662;51.194;6.614;2022-08-27T09:25:23;10.70;;;2.40;;
5277;SDS011;2662;51.194;6.614;2022-08-27T09:27:54;3.27;;;2.27;;
5277;SDS011;2662;51.194;6.614;2022-08-27T09:30:24;5.37;;;2.07;;
5277;SDS011;2662;51.194;6.614;2022-08-27T09:32:53;8.30;;;1.90;;
5277;SDS011;2662;51.194;6.614;2022-08-27T09:35:22;8.90;;;2.60;;
5277;SDS011;2662;51.194;6.614;2022-08-27T09:37:53;14.73;;;2.90;;
5277;SDS011;2662;51.194;6.614;2022-08-27T09:40:23;5.87;;;1.67;;
5277;SDS011;2662;51.194;6.614;2022-08-27T09:42:55;7.93;;;2.27;;
5277;SDS011;2662;51.194;6.614;2022-08-27T09:45:23;9.37;;;2.20;;
5277;SDS011;2662;51.194;6.614;2022-08-27T09:47:53;3.20;;;1.70;;
5277;SDS011;2662;51.194;6.614;2022-08-27T09:50:29;7.80;;;2.57;;
5277;SDS011;2662;51.194;6.614;2022-08-27T09:53:01;7.90;;;2.60;;
5277;SDS011;2662;51.194;6.614;2022-08-27T09:55:29;9.63;;;2.20;;
5277;SDS011;2662;51.194;6.614;2022-08-27T09:58:04;11.40;;;2.23;;
5277;SDS011;2662;51.194;6.614;2022-08-27T10:00:34;9.90;;;2.70;;
5277;SDS011;2662;51.194;6.614;2022-08-27T10:03:04;6.43;;;2.70;;
5277;SDS011;2662;51.194;6.614;2022-08-27T10:05:35;6.27;;;2.17;;
5277;SDS011;2662;51.194;6.614;2022-08-27T10:08:07;6.20;;;2.40;;
5277;SDS011;2662;51.194;6.614;2022-08-27T10:10:45;5.83;;;2.27;;
5277;SDS011;2662;51.194;6.614;2022-08-27T10:13:19;4.00;;;1.80;;
5277;SDS011;2662;51.194;6.614;2022-08-27T10:15:56;9.27;;;2.23;;
5277;SDS011;2662;51.194;6.614;2022-08-27T10:18:36;10.03;;;2.97;;
5277;SDS011;2662;51.194;6.614;2022-08-27T10:21:11;9.30;;;3.00;;
5277;SDS011;2662;51.194;6.614;2022-08-27T10:23:46;6.53;;;2.67;;
5277;SDS011;2662;51.194;6.614;2022-08-27T10:26:23;5.60;;;2.77;;
5277;SDS011;2662;51.194;6.614;2022-08-27T10:28:53;12.47;;;3.93;;
5277;SDS011;2662;51.194;6.614;2022-08-27T10:31:34;18.90;;;6.73;;
5277;SDS011;2662;51.194;6.614;2022-08-27T10:34:10;23.07;;;7.70;;
5277;SDS011;2662;51.194;6.614;2022-08-27T10:36:49;19.60;;;7.30;;
5277;SDS011;2662;51.194;6.614;2022-08-27T10:39:29;23.43;;;6.50;;
5277;SDS011;2662;51.194;6.614;2022-08-27T10:42:08;7.43;;;4.10;;
5277;SDS011;2662;51.194;6.614;2022-08-27T10:44:42;14.17;;;3.80;;
5277;SDS011;2662;51.194;6.614;2022-08-27T10:47:24;7.03;;;2.60;;
5277;SDS011;2662;51.194;6.614;2022-08-27T10:50:07;11.97;;;2.37;;
5277;SDS011;2662;51.194;6.614;2022-08-27T10:52:42;6.97;;;2.73;;
5277;SDS011;2662;51.194;6.614;2022-08-27T10:55:17;5.80;;;2.50;;
5277;SDS011;2662;51.194;6.614;2022-08-27T11:00:47;12.47;;;3.03;;
5277;SDS011;2662;51.194;6.614;2022-08-27T11:03:25;7.43;;;4.00;;
5277;SDS011;2662;51.194;6.614;2022-08-27T11:05:57;3.67;;;2.53;;
5277;SDS011;2662;51.194;6.614;2022-08-27T11:08:30;13.07;;;2.53;;
5277;SDS011;2662;51.194;6.614;2022-08-27T11:11:05;15.13;;;2.63;;
5277;SDS011;2662;51.194;6.614;2022-08-27T11:13:36;4.93;;;2.50;;
5277;SDS011;2662;51.194;6.614;2022-08-27T11:16:09;5.00;;;1.90;;
5277;SDS011;2662;51.194;6.614;2022-08-27T11:18:41;3.00;;;1.90;;
5277;SDS011;2662;51.194;6.614;2022-08-27T11:21:12;5.80;;;2.53;;
5277;SDS011;2662;51.194;6.614;2022-08-27T11:23:42;9.50;;;2.17;;
5277;SDS011;2662;51.194;6.614;2022-08-27T11:26:13;11.87;;;2.93;;
5277;SDS011;2662;51.194;6.614;2022-08-27T11:28:41;6.23;;;2.77;;
5277;SDS011;2662;51.194;6.614;2022-08-27T11:31:11;5.50;;;2.10;;
5277;SDS011;2662;51.194;6.614;2022-08-27T11:33:43;4.57;;;2.37;;
5277;SDS011;2662;51.194;6.614;2022-08-27T11:36:22;3.97;;;2.30;;
5277;SDS011;2662;51.194;6.614;2022-08-27T11:39:25;7.13;;;2.30;;
5277;SDS011;2662;51.194;6.614;2022-08-27T11:42:08;14.53;;;2.93;;
5277;SDS011;2662;51.194;6.614;2022-08-27T11:44:45;18.80;;;3.80;;
5277;SDS011;2662;51.194;6.614;2022-08-27T11:47:17;4.57;;;1.97;;
5277;SDS011;2662;51.194;6.614;2022-08-27T11:49:46;5.93;;;1.87;;
5277;SDS011;2662;51.194;6.614;2022-08-27T11:52:23;5.60;;;2.00;;
5277;SDS011;2662;51.194;6.614;2022-08-27T11:54:54;9.00;;;1.73;;
5277;SDS011;2662;51.194;6.614;2022-08-27T11:57:35;3.50;;;2.00;;
5277;SDS011;2662;51.194;6.614;2022-08-27T12:00:17;6.10;;;2.10;;
5277;SDS011;2662;51.194;6.614;2022-08-27T12:02:55;2.00;;;1.63;;
5277;SDS011;2662;51.194;6.614;2022-08-27T12:05:30;3.40;;;1.70;;
5277;SDS011;2662;51.194;6.614;2022-08-27T12:08:09;4.50;;;1.60;;
5277;SDS011;2662;51.194;6.614;2022-08-27T12:10:41;5.33;;;1.70;;
5277;SDS011;2662;51.194;6.614;2022-08-27T12:13:20;9.13;;;1.83;;
5277;SDS011;2662;51.194;6.614;2022-08-27T12:15:55;4.47;;;1.63;;
5277;SDS011;2662;51.194;6.614;2022-08-27T12:18:39;4.73;;;2.40;;
5277;SDS011;2662;51.194;6.614;2022-08-27T12:21:20;8.20;;;2.17;;
5277;SDS011;2662;51.194;6.614;2022-08-27T12:23:59;10.57;;;2.20;;
5277;SDS011;2662;51.194;6.614;2022-08-27T12:26:35;5.43;;;1.73;;
5277;SDS011;2662;51.194;6.614;2022-08-27T12:29:18;4.10;;;1.83;;
5277;SDS011;2662;51.194;6.614;2022-08-27T12:31:49;7.53;;;2.10;;
5277;SDS011;2662;51.194;6.614;2022-08-27T12:34:19;4.87;;;1.60;;
5277;SDS011;2662;51.194;6.614;2022-08-27T12:36:49;5.77;;;2.17;;
5277;SDS011;2662;51.194;6.614;2022-08-27T12:39:18;6.83;;;1.73;;
5277;SDS011;2662;51.194;6.614;2022-08-27T12:41:48;2.07;;;1.90;;
5277;SDS011;2662;51.194;6.614;2022-08-27T12:44:23;3.20;;;1.63;;
5277;SDS011;2662;51.194;6.614;2022-08-27T12:46:52;7.00;;;1.70;;
5277;SDS011;2662;51.194;6.614;2022-08-27T12:49:32;4.00;;;1.50;;
5277;SDS011;2662;51.194;6.614;2022-08-27T12:52:03;1.90;;;1.30;;
5277;SDS011;2662;51.194;6.614;2022-08-27T12:54:41;12.60;;;2.00;;
5277;SDS011;2662;51.194;6.614;2022-08-27T12:57:16;7.80;;;1.90;;
5277;SDS011;2662;51.194;6.614;2022-08-27T12:59:58;3.17;;;1.50;;
5277;SDS011;2662;51.194;6.614;2022-08-27T13:02:51;6.40;;;1.50;;
5277;SDS011;2662;51.194;6.614;2022-08-27T13:05:39;13.50;;;1.93;;
5277;SDS011;2662;51.194;6.614;2022-08-27T13:08:16;11.50;;;2.13;;
5277;SDS011;2662;51.194;6.614;2022-08-27T13:10:45;5.90;;;1.63;;
5277;SDS011;2662;51.194;6.614;2022-08-27T13:13:13;6.10;;;1.50;;
5277;SDS011;2662;51.194;6.614;2022-08-27T13:15:44;3.60;;;1.60;;
5277;SDS011;2662;51.194;6.614;2022-08-27T13:18:14;11.20;;;2.00;;
5277;SDS011;2662;51.194;6.614;2022-08-27T13:20:41;4.70;;;1.60;;
5277;SDS011;2662;51.194;6.614;2022-08-27T13:23:11;3.87;;;1.90;;
5277;SDS011;2662;51.194;6.614;2022-08-27T13:25:40;4.93;;;2.10;;
5277;SDS011;2662;51.194;6.614;2022-08-27T13:28:17;11.30;;;2.47;;
5277;SDS011;2662;51.194;6.614;2022-08-27T13:30:48;11.57;;;2.03;;
5277;SDS011;2662;51.194;6.614;2022-08-27T13:33:18;4.00;;;1.90;;
5277;SDS011;2662;51.194;6.614;2022-08-27T13:35:48;7.57;;;2.00;;
5277;SDS011;2662;51.194;6.614;2022-08-27T13:38:16;7.60;;;1.30;;
5277;SDS011;2662;51.194;6.614;2022-08-27T13:40:50;5.33;;;2.37;;
5277;SDS011;2662;51.194;6.614;2022-08-27T13:43:20;4.87;;;1.90;;
5277;SDS011;2662;51.194;6.614;2022-08-27T13:45:55;2.80;;;1.60;;
5277;SDS011;2662;51.194;6.614;2022-08-27T13:48:22;6.53;;;1.93;;
5277;SDS011;2662;51.194;6.614;2022-08-27T13:50:50;3.33;;;1.80;;
5277;SDS011;2662;51.194;6.614;2022-08-27T13:53:19;5.87;;;2.00;;
5277;SDS011;2662;51.194;6.614;2022-08-27T13:56:06;7.87;;;2.23;;
5277;SDS011;2662;51.194;6.614;2022-08-27T13:58:33;6.07;;;1.70;;
5277;SDS011;2662;51.194;6.614;2022-08-27T14:01:10;5.40;;;1.60;;
5277;SDS011;2662;51.194;6.614;2022-08-27T14:03:45;9.30;;;1.60;;
5277;SDS011;2662;51.194;6.614;2022-08-27T14:06:21;9.00;;;1.97;;
5277;SDS011;2662;51.194;6.614;2022-08-27T14:08:49;5.17;;;2.10;;
5277;SDS011;2662;51.194;6.614;2022-08-27T14:11:20;4.70;;;1.60;;
5277;SDS011;2662;51.194;6.614;2022-08-27T14:13:49;3.47;;;1.67;;
5277;SDS011;2662;51.194;6.614;2022-08-27T14:16:23;4.30;;;1.97;;
5277;SDS011;2662;51.194;6.614;2022-08-27T14:18:53;7.87;;;2.17;;
5277;SDS011;2662;51.194;6.614;2022-08-27T14:21:27;5.50;;;1.90;;
5277;SDS011;2662;51.194;6.614;2022-08-27T14:23:54;6.13;;;1.60;;
5277;SDS011;2662;51.194;6.614;2022-08-27T14:26:21;4.87;;;1.57;;
5277;SDS011;2662;51.194;6.614;2022-08-27T14:28:48;6.83;;;1.90;;
5277;SDS011;2662;51.194;6.614;2022-08-27T14:31:14;5.33;;;1.63;;
5277;SDS011;2662;51.194;6.614;2022-08-27T14:33:43;6.80;;;1.93;;
5277;SDS011;2662;51.194;6.614;2022-08-27T14:36:10;11.93;;;2.03;;
5277;SDS011;2662;51.194;6.614;2022-08-27T14:38:38;3.77;;;1.87;;
5277;SDS011;2662;51.194;6.614;2022-08-27T14:41:07;10.83;;;2.53;;
5277;SDS011;2662;51.194;6.614;2022-08-27T14:43:34;7.43;;;1.73;;
5277;SDS011;2662;51.194;6.614;2022-08-27T14:46:02;14.90;;;2.00;;
5277;SDS011;2662;51.194;6.614;2022-08-27T14:48:31;12.60;;;2.00;;
5277;SDS011;2662;51.194;6.614;2022-08-27T14:51:01;5.77;;;1.83;;
5277;SDS011;2662;51.194;6.614;2022-08-27T14:53:34;5.10;;;1.83;;
5277;SDS011;2662;51.194;6.614;2022-08-27T14:56:01;5.00;;;1.70;;
5277;SDS011;2662;51.194;6.614;2022-08-27T14:58:28;5.20;;;1.43;;
5277;SDS011;2662;51.194;6.614;2022-08-27T15:00:55;4.73;;;2.00;;
5277;SDS011;2662;51.194;6.614;2022-08-27T15:03:22;4.47;;;1.63;;
5277;SDS011;2662;51.194;6.614;2022-08-27T15:05:50;7.20;;;1.50;;
5277;SDS011;2662;51.194;6.614;2022-08-27T15:08:20;6.00;;;1.80;;
5277;SDS011;2662;51.194;6.614;2022-08-27T15:10:47;4.10;;;1.77;;
5277;SDS011;2662;51.194;6.614;2022-08-27T15:13:15;2.20;;;1.47;;
5277;SDS011;2662;51.194;6.614;2022-08-27T15:15:42;2.80;;;1.60;;
5277;SDS011;2662;51.194;6.614;2022-08-27T15:18:08;7.83;;;1.97;;
5277;SDS011;2662;51.194;6.614;2022-08-27T15:20:35;6.07;;;1.70;;
5277;SDS011;2662;51.194;6.614;2022-08-27T15:23:02;8.83;;;2.10;;
5277;SDS011;2662;51.194;6.614;2022-08-27T15:25:30;5.07;;;1.80;;
5277;SDS011;2662;51.194;6.614;2022-08-27T15:27:58;4.73;;;1.73;;
5277;SDS011;2662;51.194;6.614;2022-08-27T15:30:25;3.00;;;1.50;;